Perryville, Alaska
Current Conditions -  °F | °C
As of 11:16 PM on Monday 26 Jan 2015 (Local Time) from PAJC Reporting Station
Broken Clouds Broken Clouds  
Wind Chill: 36°   Ceiling: 2300
Heat Index: 41°   Visibility: 10mi
Dew Point: 34°   Wind: 7mph
Humidity: 76%   Direction: 130°SE
Pressure: 29.57"   Gusts: 18mph
Location:  55.91°N, 159.16°W
Report Text: PAJC 270816Z AUTO 13006G16KT 10SM FEW017 BKN023 BKN029 05/01 A2957 RMK AO1
Loading
Personal Weather Stations






























Interactive Weather Map New forecast layout! Learn more

10-Day Weather Forecast

Advertisements
Track Severe Weather on mobile